Latest Weather Observations for Longreach

IDQ60801

Issued at 1:35 pm EST Wednesday 22 October 2014 (issued every 30 minutes, with the page automatically refreshed every 10 minutes)

About weather observations | Map of weather stations | Latest weather observations for QLD | Other Formats
Station Details ID: 036031 Name: LONGREACH AERO Lat: -23.44 Lon: 144.28 Height: 192.2 m
Data from the previous 72 hours. | See also: Recent months at Longreach
Date/Time
EST
Temp
°C
App
Temp
°C
Dew
Point
Rel
Hum
%
Delta-T
°C
Wind Press
QNH
hPa
Press
MSL
hPa
Rain
since 9 am
mm
Dir
 
Spd
km/h
Gust
km/h
Spd
kts
Gust
kts
22/01:30pm 32.5 27.6 5.0 18 14.6 ENE 20 39 11 21 1019.0 - 0.0
22/01:00pm 31.8 25.7 4.9 18 14.2 ENE 26 37 14 20 1019.6 - 0.0
22/12:30pm 32.1 27.2 7.1 21 13.7 NE 22 35 12 19 1020.0 - 0.0
22/12:00pm 30.9 24.7 6.1 21 13.3 ENE 28 37 15 20 1020.6 1019.6 0.0
22/11:30am 29.8 25.5 7.7 25 12.1 NE 20 33 11 18 1021.3 - 0.0
22/11:00am 29.4 23.5 7.5 25 11.9 NNE 28 37 15 20 1021.9 - 0.0
22/10:30am 27.8 21.9 7.6 28 10.9 NE 28 41 15 22 1022.3 - 0.0
22/10:00am 27.8 21.2 8.4 29 10.7 NE 33 48 18 26 1022.5 - 0.0
22/09:30am 26.5 19.1 8.5 32 9.8 NE 37 48 20 26 1022.5 - 0.0
22/09:00am 25.5 17.7 8.2 33 9.3 NE 39 50 21 27 1022.6 1021.6 0.0
22/08:30am 24.5 16.3 8.0 35 8.8 NE 41 54 22 29 1022.8 - 0.0
22/08:00am 24.2 15.5 7.6 34 8.8 NE 43 54 23 29 1022.6 - 0.0
22/07:30am 23.0 15.0 7.3 36 8.2 NE 39 52 21 28 1022.3 - 0.0
22/07:00am 22.3 15.6 7.3 38 7.8 NE 32 43 17 23 1022.0 - 0.0
22/06:30am 21.0 16.6 7.5 41 7.0 NE 20 30 11 16 1021.6 - 0.0
22/06:00am 19.9 15.7 7.5 44 6.4 NE 19 22 10 12 1021.1 1020.1 0.0
22/05:30am 19.6 15.9 7.8 46 6.1 NE 17 19 9 10 1020.9 - 0.0
22/05:00am 20.0 16.3 7.9 45 6.3 NE 17 22 9 12 1020.4 - 0.0
22/04:30am 20.4 16.3 7.9 44 6.5 NE 19 26 10 14 1019.9 - 0.0
22/04:00am 21.1 17.3 7.4 41 7.1 NE 17 22 9 12 1019.5 - 0.0
22/03:30am 21.1 16.5 6.6 39 7.4 NE 20 30 11 16 1019.4 - 0.0
22/03:00am 21.7 15.4 5.9 35 8.0 NNE 28 32 15 17 1019.1 1018.1 0.0
22/02:30am 22.4 16.8 5.3 33 8.6 NE 24 32 13 17 1019.3 - 0.0
22/02:00am 23.2 16.3 4.8 30 9.2 NE 30 37 16 20 1019.6 - 0.0
22/01:30am 22.8 18.3 4.4 30 9.1 ENE 17 22 9 12 1019.8 - 0.0
22/01:00am 22.8 17.7 4.1 29 9.2 ENE 20 26 11 14 1020.0 - 0.0
22/12:30am 23.7 18.2 3.8 27 9.8 ENE 22 28 12 15 1020.2 - 0.0
22/12:00am 24.1 19.0 3.9 27 10.0 ENE 20 28 11 15 1020.3 1019.3 0.0
 
Date/Time
EST
Temp
°C
App
Temp
°C
Dew
Point
Rel
Hum
%
Delta-T
°C
Wind Press
QNH
hPa
Press
MSL
hPa
Rain
since 9 am
mm
Dir
 
Spd
km/h
Gust
km/h
Spd
kts
Gust
kts
21/11:30pm 24.3 18.8 4.2 27 10.0 E 22 30 12 16 1020.6 - 0.0
21/11:00pm 24.5 19.3 3.6 25 10.3 ENE 20 28 11 15 1020.6 - 0.0
21/10:30pm 24.5 19.6 4.3 27 10.1 E 19 20 10 11 1021.0 - 0.0
21/10:00pm 24.9 20.0 4.0 26 10.4 E 19 22 10 12 1020.9 - 0.0
21/09:30pm 24.9 20.3 3.7 25 10.5 E 17 20 9 11 1020.6 - 0.0
21/09:00pm 25.0 20.4 3.6 25 10.6 E 17 19 9 10 1020.4 1019.4 0.0
21/08:30pm 25.7 21.1 3.6 24 11.0 E 17 17 9 9 1020.1 - 0.0
21/08:00pm 26.6 22.0 3.6 22 11.5 E 17 19 9 10 1019.8 - 0.0
21/07:30pm 27.3 23.1 3.6 21 11.9 E 15 17 8 9 1019.5 - 0.0
21/07:00pm 28.8 23.8 3.6 20 12.8 E 19 26 10 14 1019.0 - 0.0
21/06:30pm 30.4 24.2 2.3 16 14.1 E 24 32 13 17 1018.5 - 0.0
21/06:00pm 31.3 24.3 2.0 15 14.7 E 28 37 15 20 1018.2 1017.2 0.0
21/05:30pm 32.1 24.8 2.7 15 15.0 E 30 39 16 21 1017.9 - 0.0
21/05:00pm 32.5 25.1 2.1 14 15.4 E 30 43 16 23 1017.7 - 0.0
21/04:30pm 32.9 26.3 1.9 14 15.7 E 26 41 14 22 1017.5 - 0.0
21/04:00pm 33.4 26.6 1.1 13 16.2 E 26 33 14 18 1017.6 - 0.0
21/03:53pm 33.8 26.6 0.8 12 16.5 ESE 28 46 15 25 1017.7 - 0.0
21/03:30pm 33.5 26.4 1.3 13 16.2 ENE 28 39 15 21 1017.7 - 0.0
21/03:21pm 33.3 26.3 2.0 14 15.9 E 28 33 15 18 1017.8 - 0.0
21/03:12pm 33.2 24.4 1.4 13 16.0 ENE 37 50 20 27 1017.9 - 0.0
21/03:00pm 33.0 25.6 1.7 13 15.8 ESE 30 39 16 21 1017.9 1016.9 0.0
21/02:41pm 33.3 26.4 2.4 14 15.8 E 28 46 15 25 1018.2 - 0.0
21/02:30pm 33.3 26.1 3.2 15 15.6 ESE 30 41 16 22 1018.5 - 0.0
21/02:00pm 33.0 25.1 2.1 14 15.7 ENE 33 41 18 22 1018.9 - 0.0
21/01:30pm 33.5 26.0 3.3 15 15.7 ENE 32 48 17 26 1019.4 - 0.0
21/01:26pm 33.0 25.9 3.6 15 15.3 ENE 30 48 16 26 1019.4 - 0.0
21/01:00pm 32.1 25.6 4.5 17 14.5 E 28 39 15 21 1020.0 - 0.0
21/12:34pm 32.6 26.1 4.5 17 14.8 ENE 28 48 15 26 1020.5 - 0.0
21/12:30pm 32.2 25.7 4.7 17 14.5 ENE 28 41 15 22 1020.8 - 0.0
21/12:00pm 31.1 26.5 6.4 21 13.3 E 20 35 11 19 1021.4 1020.4 0.0
21/11:30am 30.1 24.0 6.7 23 12.6 ESE 28 37 15 20 1022.0 - 0.0
21/11:00am 29.9 24.2 6.9 23 12.5 ENE 26 37 14 20 1022.5 - 0.0
21/10:30am 28.8 23.2 7.0 25 11.8 ENE 26 50 14 27 1022.9 - 0.0
21/10:00am 28.0 21.9 6.8 26 11.3 ENE 28 39 15 21 1023.3 - 0.0
21/09:30am 26.4 20.3 6.7 28 10.4 ENE 28 39 15 21 1023.6 - 0.0
21/09:00am 26.1 18.9 6.1 28 10.4 NE 33 44 18 24 1023.6 1022.6 0.0
21/08:30am 25.5 17.9 5.7 28 10.2 NE 35 46 19 25 1023.5 - 0.0
21/08:00am 25.2 17.8 4.9 27 10.3 NE 33 43 18 23 1023.0 - 0.0
21/07:30am 23.7 17.3 5.3 30 9.3 ENE 28 37 15 20 1022.6 - 0.0
21/07:00am 21.8 17.0 5.4 34 8.2 ENE 20 30 11 16 1022.0 - 0.0
21/06:30am 20.3 15.8 4.2 34 7.8 ENE 17 22 9 12 1021.3 - 0.0
21/06:00am 18.6 14.6 2.6 34 7.4 ENE 13 17 7 9 1020.8 1019.7 0.0
21/05:30am 18.4 13.9 2.0 33 7.5 NE 15 17 8 9 1020.1 - 0.0
21/05:00am 18.9 13.9 1.5 31 7.9 NE 17 19 9 10 1019.5 - 0.0
21/04:30am 19.3 14.3 1.2 30 8.2 NE 17 20 9 11 1019.2 - 0.0
21/04:00am 20.3 14.7 1.0 27 8.8 ENE 20 28 11 15 1018.9 - 0.0
21/03:30am 20.7 15.3 1.0 27 9.0 ENE 19 22 10 12 1018.7 - 0.0
21/03:00am 20.5 15.9 1.7 28 8.7 ENE 15 17 8 9 1018.7 1017.7 0.0
21/02:30am 20.9 16.7 1.7 28 8.9 ENE 13 15 7 8 1018.7 - 0.0
21/02:00am 20.1 15.6 2.3 30 8.3 ENE 15 17 8 9 1018.8 - 0.0
21/01:30am 21.6 17.0 1.6 26 9.3 NE 15 15 8 8 1018.9 - 0.0
21/01:00am 22.3 17.3 1.6 25 9.7 ENE 17 17 9 9 1019.1 - 0.0
21/12:30am 22.8 17.9 1.8 25 9.9 ENE 17 19 9 10 1019.4 - 0.0
21/12:00am 22.6 17.7 1.8 25 9.8 ENE 17 17 9 9 1019.6 1018.6 0.0
 
Date/Time
EST
Temp
°C
App
Temp
°C
Dew
Point
Rel
Hum
%
Delta-T
°C
Wind Press
QNH
hPa
Press
MSL
hPa
Rain
since 9 am
mm
Dir
 
Spd
km/h
Gust
km/h
Spd
kts
Gust
kts
20/11:30pm 23.0 18.4 1.5 24 10.1 ENE 15 17 8 9 1019.8 - 0.0
20/11:00pm 24.1 19.2 1.8 23 10.6 ENE 17 19 9 10 1019.8 - 0.0
20/10:30pm 24.2 19.6 1.3 22 10.8 ENE 15 17 8 9 1019.9 - 0.0
20/10:00pm 24.9 19.9 1.3 21 11.2 ENE 17 22 9 12 1020.0 - 0.0
20/09:30pm 25.5 20.2 1.8 21 11.4 ENE 19 24 10 13 1019.7 - 0.0
20/09:00pm 26.7 21.2 1.7 19 12.1 ENE 20 28 11 15 1019.5 1018.5 0.0
20/08:30pm 26.6 21.4 2.2 20 11.9 E 19 22 10 12 1019.1 - 0.0
20/08:00pm 27.1 22.4 2.9 21 12.0 E 17 19 9 10 1019.0 - 0.0
20/07:30pm 26.6 22.4 4.0 23 11.4 E 15 17 8 9 1018.6 - 0.0
20/07:00pm 28.8 24.2 3.6 20 12.8 E 17 19 9 10 1018.3 - 0.0
20/06:30pm 29.4 24.3 4.1 20 13.0 E 20 28 11 15 1018.1 - 0.0
20/06:00pm 31.2 25.1 3.0 16 14.4 E 24 32 13 17 1017.6 1016.6 0.0
20/05:30pm 32.0 26.8 3.3 16 14.8 E 20 28 11 15 1017.4 - 0.0
20/05:00pm 32.3 26.5 2.4 15 15.2 ESE 22 35 12 19 1017.2 - 0.0
20/04:30pm 33.0 26.7 1.7 13 15.8 ESE 24 35 13 19 1017.1 - 0.0
20/04:04pm 33.4 26.5 2.3 14 15.9 ESE 28 46 15 25 1017.1 - 0.0
20/04:00pm 33.5 27.0 2.5 14 15.9 ESE 26 33 14 18 1017.1 - 0.0
20/03:30pm 32.5 26.0 2.9 15 15.2 E 26 39 14 21 1017.3 - 0.0
20/03:00pm 32.4 27.2 3.8 16 14.9 E 20 30 11 16 1017.6 1016.6 0.0
20/02:30pm 32.3 27.2 3.9 16 14.8 SE 20 37 11 20 1018.0 - 0.0
20/02:00pm 32.2 25.6 4.4 17 14.6 E 28 33 15 18 1018.3 - 0.0
20/01:30pm 32.3 26.0 5.6 18 14.3 ESE 28 44 15 24 1018.8 - 0.0
20/01:00pm 31.6 25.6 5.5 19 13.9 ENE 26 39 14 21 1019.5 - 0.0
20/12:30pm 32.0 26.8 5.6 19 14.1 E 22 39 12 21 1020.1 - 0.0
20/12:00pm 31.4 25.8 5.4 19 13.8 E 24 39 13 21 1020.8 1019.7 0.0
20/11:30am 30.1 24.4 6.7 23 12.6 ENE 26 46 14 25 1021.3 - 0.0
20/11:00am 29.2 23.0 6.0 23 12.3 ENE 28 39 15 21 1021.8 - 0.0
20/10:30am 28.6 24.2 7.6 26 11.4 NE 20 32 11 17 1022.4 - 0.0
20/10:00am 27.6 22.7 7.0 27 11.0 NNE 22 33 12 18 1023.0 - 0.0
20/09:30am 26.4 21.1 6.9 29 10.4 NNE 24 33 13 18 1023.4 - 0.0
20/09:00am 25.8 19.8 7.1 30 9.9 NE 28 35 15 19 1023.6 1022.6 0.0
20/08:30am 24.6 18.4 7.9 34 8.9 NE 30 35 16 19 1023.5 - 0.0
20/08:00am 23.6 17.4 7.9 36 8.4 NE 30 37 16 20 1023.4 - 0.0
20/07:30am 22.7 17.0 8.4 40 7.6 NE 28 35 15 19 1023.2 - 0.0
20/07:00am 21.2 17.0 8.3 43 6.8 NE 20 30 11 16 1022.8 - 0.0
20/06:30am 18.8 15.6 6.9 46 6.0 ENE 13 17 7 9 1022.3 - 0.0
20/06:00am 16.6 12.9 6.2 50 5.1 ENE 15 15 8 8 1021.9 1020.9 0.0
20/05:30am 16.6 12.8 6.0 49 5.2 NE 15 15 8 8 1021.4 - 0.0
20/05:00am 16.8 12.9 5.4 47 5.5 NE 15 17 8 9 1021.2 - 0.0
20/04:30am 16.7 12.8 5.3 47 5.5 NE 15 15 8 8 1020.6 - 0.0
20/04:00am 18.3 14.8 5.4 42 6.3 NNE 13 13 7 7 1020.3 - 0.0
20/03:30am 19.2 15.8 5.7 41 6.7 NNE 13 15 7 8 1020.0 - 0.0
20/03:00am 18.7 15.1 5.2 41 6.6 NE 13 15 7 8 1019.8 1018.8 0.0
20/02:30am 20.3 16.0 5.4 37 7.4 NE 17 19 9 10 1019.8 - 0.0
20/02:00am 21.3 17.0 5.2 35 8.0 NE 17 20 9 11 1019.9 - 0.0
20/01:30am 22.2 17.4 5.5 33 8.4 ENE 20 28 11 15 1020.1 - 0.0
20/01:00am 21.6 17.7 5.4 34 8.1 NE 15 19 8 10 1020.4 - 0.0
20/12:30am 21.8 17.4 4.9 33 8.4 ENE 17 19 9 10 1020.6 - 0.0
20/12:00am 22.5 17.8 5.1 32 8.7 ENE 19 24 10 13 1021.1 1020.1 0.0
 
Date/Time
EST
Temp
°C
App
Temp
°C
Dew
Point
Rel
Hum
%
Delta-T
°C
Wind Press
QNH
hPa
Press
MSL
hPa
Rain
since 9 am
mm
Dir
 
Spd
km/h
Gust
km/h
Spd
kts
Gust
kts
19/11:30pm 23.5 18.3 5.3 30 9.2 ENE 22 26 12 14 1021.3 - 0.0
19/11:00pm 23.7 18.8 5.3 30 9.3 ENE 20 26 11 14 1021.6 - 0.0
19/10:30pm 23.6 19.4 5.5 31 9.2 ENE 17 19 9 10 1021.8 - 0.0
19/10:00pm 24.1 19.8 5.1 29 9.6 ENE 17 17 9 9 1021.6 - 0.0
19/09:30pm 24.6 20.2 4.8 27 10.0 ENE 17 20 9 11 1021.4 - 0.0
19/09:00pm 24.7 20.7 4.9 28 10.0 ENE 15 17 8 9 1020.9 1019.9 0.0
19/08:30pm 25.7 21.3 4.9 26 10.6 ENE 17 24 9 13 1020.2 - 0.0
19/08:00pm 26.6 21.8 4.6 24 11.2 ENE 19 24 10 13 1019.7 - 0.0
19/07:30pm 27.4 22.6 4.8 23 11.6 E 19 22 10 12 1019.4 - 0.0
19/07:00pm 28.0 23.6 5.0 23 11.9 E 17 22 9 12 1019.1 - 0.0
19/06:30pm 29.4 23.9 4.1 20 13.0 E 22 28 12 15 1018.7 - 0.0
19/06:00pm 30.3 24.3 3.5 18 13.7 E 24 32 13 17 1018.4 1017.4 0.0
19/05:30pm 31.1 24.0 3.5 17 14.2 E 30 37 16 20 1018.0 - 0.0
19/05:00pm 32.0 25.5 2.9 16 14.9 E 26 35 14 19 1017.7 - 0.0
19/04:30pm 31.9 25.1 3.0 16 14.8 E 28 35 15 19 1017.6 - 0.0
19/04:00pm 31.8 26.6 3.6 17 14.6 E 20 41 11 22 1017.4 - 0.0
19/03:30pm 33.3 26.2 1.6 13 16.0 E 28 39 15 21 1017.6 - 0.0
19/03:00pm 32.6 26.4 1.9 14 15.5 ESE 24 44 13 24 1018.0 1017.0 0.0
19/02:30pm 32.3 25.1 3.2 16 15.0 ESE 30 43 16 23 1018.4 - 0.0
19/02:00pm 32.4 25.2 3.0 15 15.1 E 30 50 16 27 1018.7 - 0.0
19/01:59pm 32.6 25.7 2.7 15 15.3 E 28 50 15 27 1018.7 - 0.0

Other Formats:

Comma delimited format used in spreadsheet applications
http://www.bom.gov.au/fwo/IDQ60801/IDQ60801.94346.axf

JavaScript Object Notation format (JSON) in row-major order
http://www.bom.gov.au/fwo/IDQ60801/IDQ60801.94346.json